createdAt,value
2023-05-22T00:01:46.707Z,80.99
2023-05-22T00:04:21.100Z,82.82
2023-05-22T00:06:50.504Z,81.28
2023-05-22T00:09:18.291Z,82.74
2023-05-22T00:11:46.081Z,82.61
2023-05-22T00:14:14.392Z,81.95
2023-05-22T00:16:42.168Z,85.56
2023-05-22T00:19:13.275Z,82.68
2023-05-22T00:21:41.383Z,85.34
2023-05-22T00:24:10.682Z,85.43
2023-05-22T00:26:38.449Z,87.97
2023-05-22T00:29:06.654Z,86.68
2023-05-22T00:31:34.418Z,85.17
2023-05-22T00:34:02.329Z,86.52
2023-05-22T00:36:30.297Z,87.49
2023-05-22T00:38:58.051Z,87.77
2023-05-22T00:41:27.251Z,85.94
2023-05-22T00:43:55.184Z,85.62
2023-05-22T00:46:24.513Z,89.38
2023-05-22T00:48:53.104Z,86.43
2023-05-22T00:51:22.416Z,87.65
2023-05-22T00:53:50.759Z,86.40
2023-05-22T00:56:19.716Z,86.40
2023-05-22T00:58:49.237Z,85.99
2023-05-22T01:01:17.691Z,88.18
2023-05-22T01:03:45.879Z,90.25
2023-05-22T01:06:14.409Z,89.90
2023-05-22T01:08:42.937Z,88.51
2023-05-22T01:11:16.436Z,87.03
2023-05-22T01:13:54.884Z,88.25
2023-05-22T01:16:30.278Z,89.97
2023-05-22T01:19:04.140Z,88.20
2023-05-22T01:21:38.274Z,87.49
2023-05-22T01:24:45.660Z,89.05
2023-05-22T01:27:49.354Z,87.97
2023-05-22T01:30:30.480Z,89.45
2023-05-22T01:33:00.658Z,88.96
2023-05-22T01:35:29.631Z,91.19
2023-05-22T01:37:59.425Z,88.17
2023-05-22T01:40:28.350Z,89.37
2023-05-22T01:42:56.446Z,87.57
2023-05-22T01:45:24.167Z,88.88
2023-05-22T01:47:52.120Z,87.23
2023-05-22T01:50:21.588Z,88.49
2023-05-22T01:53:00.249Z,88.42
2023-05-22T01:55:35.114Z,88.36
2023-05-22T01:58:13.621Z,88.94
2023-05-22T02:00:44.363Z,88.05
2023-05-22T02:03:20.254Z,87.33
2023-05-22T02:05:55.559Z,89.05
2023-05-22T02:08:25.015Z,92.16
2023-05-22T02:10:56.030Z,93.89
2023-05-22T02:13:24.546Z,89.74
2023-05-22T02:15:53.138Z,91.39
2023-05-22T02:18:22.326Z,90.73
2023-05-22T02:20:51.543Z,92.04
2023-05-22T02:23:19.336Z,88.66
2023-05-22T02:25:47.047Z,92.65
2023-05-22T02:28:14.801Z,90.86
2023-05-22T02:30:42.529Z,91.80
2023-05-22T02:33:11.489Z,91.55
2023-05-22T02:35:39.257Z,92.00
2023-05-22T02:38:08.358Z,92.03
2023-05-22T02:40:36.099Z,95.00
2023-05-22T02:43:03.906Z,92.67
2023-05-22T02:45:33.502Z,91.84
2023-05-22T02:48:03.386Z,92.87
2023-05-22T02:50:31.310Z,92.10
2023-05-22T02:52:59.069Z,93.78
2023-05-22T02:55:28.234Z,93.55
2023-05-22T02:57:55.988Z,96.67
2023-05-22T03:00:23.766Z,93.24
2023-05-22T03:02:51.567Z,92.16
2023-05-22T03:05:19.632Z,93.83
2023-05-22T03:07:49.106Z,92.45
2023-05-22T03:10:17.050Z,93.54
2023-05-22T03:12:46.143Z,94.32
2023-05-22T03:15:13.920Z,94.58
2023-05-22T03:17:41.705Z,91.16
2023-05-22T03:20:10.449Z,93.09
2023-05-22T03:22:38.263Z,94.42
2023-05-22T03:25:09.368Z,92.97
2023-05-22T03:27:37.146Z,91.16
2023-05-22T03:30:08.077Z,90.83
2023-05-22T03:32:37.635Z,94.38
2023-05-22T03:35:06.547Z,92.20
2023-05-22T03:37:34.424Z,91.73
2023-05-22T03:40:02.270Z,92.24
2023-05-22T03:42:29.984Z,93.70
2023-05-22T03:44:57.724Z,94.33
2023-05-22T03:47:26.943Z,94.85
2023-05-22T03:49:54.703Z,93.91
2023-05-22T03:52:23.182Z,96.33
2023-05-22T03:54:51.091Z,97.16
2023-05-22T03:57:19.965Z,97.54
2023-05-22T03:59:47.773Z,95.61
2023-05-22T04:02:16.896Z,96.85
2023-05-22T04:04:47.057Z,98.51
2023-05-22T04:07:14.881Z,95.82
2023-05-22T04:09:42.692Z,95.94
2023-05-22T04:12:11.014Z,95.83
2023-05-22T04:14:38.769Z,94.55
2023-05-22T04:17:06.551Z,95.36
2023-05-22T04:19:34.347Z,100.00
2023-05-22T04:22:03.507Z,98.16
2023-05-22T04:24:31.285Z,98.32
2023-05-22T04:27:00.359Z,94.31
2023-05-22T04:29:28.632Z,93.98
2023-05-22T04:31:56.396Z,96.35
2023-05-22T04:34:24.506Z,100.00
2023-05-22T04:36:52.675Z,98.41
2023-05-22T04:39:22.322Z,94.35
2023-05-22T04:41:50.541Z,94.25
2023-05-22T04:44:18.296Z,93.04
2023-05-22T04:46:46.131Z,93.57
2023-05-22T04:49:14.211Z,94.38
2023-05-22T04:51:41.990Z,95.34
2023-05-22T04:54:09.743Z,94.38
2023-05-22T04:56:38.911Z,92.77
2023-05-22T04:59:09.355Z,93.72
2023-05-22T05:01:37.954Z,93.82
2023-05-22T05:04:06.113Z,95.31
2023-05-22T05:06:34.916Z,95.87
2023-05-22T05:09:02.811Z,93.55
2023-05-22T05:11:30.559Z,92.45
2023-05-22T05:13:59.694Z,92.56
2023-05-22T05:16:27.821Z,94.12
2023-05-22T05:18:56.642Z,91.66
2023-05-22T05:21:27.932Z,91.82
2023-05-22T05:23:55.829Z,92.51
2023-05-22T05:26:24.086Z,93.34
2023-05-22T05:28:51.988Z,94.34
2023-05-22T05:31:21.296Z,92.92
2023-05-22T05:33:49.124Z,89.27
2023-05-22T05:36:17.372Z,87.05
2023-05-22T05:38:45.102Z,90.67
2023-05-22T05:41:12.939Z,92.59
2023-05-22T05:43:40.777Z,90.55
2023-05-22T05:46:08.609Z,91.93
2023-05-22T05:48:37.747Z,96.07
2023-05-22T05:51:05.686Z,94.06
2023-05-22T05:53:33.621Z,92.26
2023-05-22T05:56:01.367Z,90.48
2023-05-22T05:58:29.147Z,91.62
2023-05-22T06:00:57.287Z,91.45
2023-05-22T06:03:26.018Z,89.04
2023-05-22T06:05:55.464Z,89.51
2023-05-22T06:08:23.192Z,90.02
2023-05-22T06:10:51.118Z,91.28
2023-05-22T06:13:18.890Z,90.55
2023-05-22T06:15:46.718Z,90.43
2023-05-22T06:18:14.504Z,90.76
2023-05-22T06:20:42.428Z,89.62
2023-05-22T06:23:11.660Z,90.90
2023-05-22T06:25:40.157Z,90.24
2023-05-22T06:28:07.920Z,89.54
2023-05-22T06:30:39.985Z,87.77
2023-05-22T06:33:09.097Z,86.26
2023-05-22T06:35:37.020Z,86.23
2023-05-22T06:38:04.874Z,85.51
2023-05-22T06:40:33.995Z,85.07
2023-05-22T06:43:02.245Z,84.57
2023-05-22T06:45:30.181Z,84.13
2023-05-22T06:47:58.097Z,83.62
2023-05-22T06:50:25.911Z,83.66
2023-05-22T06:52:53.652Z,82.03
2023-05-22T06:55:21.432Z,82.42
2023-05-22T06:57:50.986Z,81.50
2023-05-22T07:00:21.522Z,78.16
2023-05-22T07:02:49.692Z,78.57
2023-05-22T07:05:17.866Z,76.79
2023-05-22T07:07:45.674Z,80.37
2023-05-22T07:10:13.554Z,80.04
2023-05-22T07:12:41.326Z,78.76
2023-05-22T07:15:13.500Z,78.50
2023-05-22T07:17:41.930Z,77.29
2023-05-22T07:20:10.894Z,77.04
2023-05-22T07:22:38.793Z,77.06
2023-05-22T07:25:07.576Z,74.71
2023-05-22T07:27:35.484Z,76.14
2023-05-22T07:30:03.267Z,78.77
2023-05-22T07:32:32.421Z,75.76
2023-05-22T07:35:00.221Z,76.65
2023-05-22T07:37:28.013Z,75.73
2023-05-22T07:39:55.871Z,77.98
2023-05-22T07:42:23.735Z,75.44
2023-05-22T07:44:51.566Z,74.46
2023-05-22T07:47:19.442Z,72.23
2023-05-22T07:49:48.611Z,70.39
2023-05-22T07:52:16.509Z,70.82
2023-05-22T07:54:45.306Z,71.89
2023-05-22T07:57:14.072Z,73.69
2023-05-22T07:59:43.737Z,72.48
2023-05-22T08:02:11.496Z,73.93
2023-05-22T08:04:39.458Z,73.48
2023-05-22T08:07:08.756Z,73.67
2023-05-22T08:09:36.582Z,73.54
2023-05-22T08:12:04.574Z,72.79
2023-05-22T08:14:35.495Z,70.97
2023-05-22T08:17:03.515Z,71.27
2023-05-22T08:19:31.945Z,72.20
2023-05-22T08:22:00.032Z,71.16
2023-05-22T08:24:30.606Z,72.14
2023-05-22T08:27:00.605Z,73.91
2023-05-22T08:29:29.812Z,71.91
2023-05-22T08:31:58.247Z,71.58
2023-05-22T08:34:26.487Z,69.64
2023-05-22T08:36:54.291Z,69.70
2023-05-22T08:39:22.057Z,69.32
2023-05-22T08:41:51.597Z,69.31
2023-05-22T08:44:19.824Z,69.73
2023-05-22T08:46:48.591Z,69.63
2023-05-22T08:49:18.253Z,68.76
2023-05-22T08:51:49.484Z,69.59
2023-05-22T08:54:18.541Z,68.34
2023-05-22T08:56:56.081Z,65.80
2023-05-22T08:59:26.855Z,69.83
2023-05-22T09:01:56.631Z,68.60
2023-05-22T09:04:25.748Z,69.22
2023-05-22T09:06:55.192Z,68.94
2023-05-22T09:09:23.131Z,68.54
2023-05-22T09:11:51.012Z,69.06
2023-05-22T09:14:19.859Z,63.06
2023-05-22T09:16:50.538Z,66.31
2023-05-22T09:19:18.482Z,65.99
2023-05-22T09:21:46.264Z,66.86
2023-05-22T09:24:15.441Z,64.80
2023-05-22T09:26:43.234Z,63.26
2023-05-22T09:29:11.106Z,63.85
2023-05-22T09:31:43.834Z,63.24
2023-05-22T09:34:15.649Z,66.59
2023-05-22T09:36:43.757Z,65.51
2023-05-22T09:39:11.705Z,65.46
2023-05-22T09:41:40.923Z,63.69
2023-05-22T09:44:13.840Z,63.45
2023-05-22T09:46:42.667Z,63.09
2023-05-22T09:49:12.658Z,64.20
2023-05-22T09:51:47.615Z,62.39
2023-05-22T09:54:17.445Z,62.11
2023-05-22T09:56:47.946Z,59.78
2023-05-22T09:59:20.868Z,60.17
2023-05-22T10:01:50.916Z,61.33
2023-05-22T10:04:19.563Z,60.62
2023-05-22T10:06:52.394Z,61.88
2023-05-22T10:09:24.844Z,61.60
2023-05-22T10:11:56.142Z,62.31
2023-05-22T10:14:24.880Z,60.63
2023-05-22T10:16:53.299Z,62.39
2023-05-22T10:19:21.413Z,61.39
2023-05-22T10:21:51.167Z,62.57
2023-05-22T10:24:19.194Z,61.81
2023-05-22T10:26:46.981Z,62.59
2023-05-22T10:29:25.630Z,63.49
2023-05-22T10:32:02.103Z,63.34
2023-05-22T10:34:35.656Z,62.00
2023-05-22T10:37:21.772Z,60.62
2023-05-22T10:40:00.930Z,61.58
2023-05-22T10:42:31.081Z,60.52
2023-05-22T10:45:01.847Z,61.01
2023-05-22T10:47:29.764Z,61.27
2023-05-22T10:50:05.743Z,60.58
2023-05-22T10:52:35.032Z,62.11
2023-05-22T10:55:06.747Z,61.04
2023-05-22T10:57:35.292Z,58.83
2023-05-22T11:00:11.692Z,60.67
2023-05-22T11:02:42.075Z,61.02
2023-05-22T11:05:41.006Z,60.90
2023-05-22T11:08:36.729Z,58.94
2023-05-22T11:11:13.374Z,57.66
2023-05-22T11:13:42.516Z,58.44
2023-05-22T11:16:11.707Z,58.90
2023-05-22T11:18:39.834Z,60.53
2023-05-22T11:21:11.198Z,61.95
2023-05-22T11:23:40.570Z,59.10
2023-05-22T11:26:22.507Z,57.41
2023-05-22T11:28:53.192Z,59.07
2023-05-22T11:31:23.976Z,57.37
2023-05-22T11:33:51.843Z,57.12
2023-05-22T11:36:20.095Z,56.99
2023-05-22T11:38:49.231Z,56.74
2023-05-22T11:41:17.146Z,56.66
2023-05-22T11:43:45.257Z,56.29
2023-05-22T11:46:14.153Z,56.94
2023-05-22T11:48:43.036Z,55.03
2023-05-22T11:51:11.186Z,55.55
2023-05-22T11:53:38.912Z,54.89
2023-05-22T11:56:08.709Z,55.63
2023-05-22T11:58:36.452Z,54.92
2023-05-22T12:01:05.528Z,53.87
2023-05-22T12:03:33.904Z,55.62
2023-05-22T12:06:03.222Z,55.23
2023-05-22T12:08:31.273Z,54.56
2023-05-22T12:10:59.100Z,54.23
2023-05-22T12:13:30.080Z,55.30
2023-05-22T12:16:01.294Z,54.46
2023-05-22T12:18:29.440Z,55.38
2023-05-22T12:20:57.563Z,57.15
2023-05-22T12:23:26.617Z,56.76
2023-05-22T12:25:59.086Z,54.25
2023-05-22T12:28:28.758Z,54.71
2023-05-22T12:30:57.047Z,53.12
2023-05-22T12:33:28.889Z,52.62
2023-05-22T12:35:58.468Z,54.47
2023-05-22T12:38:27.515Z,55.92
2023-05-22T12:40:56.458Z,55.23
2023-05-22T12:43:26.376Z,54.71
2023-05-22T12:45:55.634Z,54.60
2023-05-22T12:48:23.991Z,52.88
2023-05-22T12:50:51.822Z,54.10
2023-05-22T12:53:19.698Z,55.19
2023-05-22T12:55:47.490Z,56.25
2023-05-22T12:58:15.336Z,55.42
2023-05-22T13:00:43.224Z,54.31
2023-05-22T13:03:12.612Z,52.93
2023-05-22T13:05:40.800Z,52.19
2023-05-22T13:08:08.775Z,56.09
2023-05-22T13:10:38.101Z,56.78
2023-05-22T13:13:05.820Z,53.15
2023-05-22T13:15:33.567Z,54.79
2023-05-22T13:18:01.407Z,52.21
2023-05-22T13:20:30.545Z,51.68
2023-05-22T13:22:58.344Z,52.92
2023-05-22T13:25:26.065Z,53.52
2023-05-22T13:27:53.754Z,53.77
2023-05-22T13:30:21.572Z,53.85
2023-05-22T13:32:49.471Z,54.01
2023-05-22T13:35:17.290Z,54.87
2023-05-22T13:37:46.459Z,54.93
2023-05-22T13:40:14.590Z,50.85
2023-05-22T13:42:42.453Z,51.92
2023-05-22T13:45:11.814Z,53.76
2023-05-22T13:47:39.722Z,52.55
2023-05-22T13:50:09.173Z,54.06
2023-05-22T13:52:37.023Z,55.82
2023-05-22T13:55:06.985Z,55.70
2023-05-22T13:57:36.970Z,53.79
2023-05-22T14:00:05.376Z,52.46
2023-05-22T14:02:33.235Z,52.25
2023-05-22T14:05:01.260Z,52.48
2023-05-22T14:07:29.017Z,54.17
2023-05-22T14:09:59.025Z,54.40
2023-05-22T14:12:29.808Z,53.38
2023-05-22T14:14:57.741Z,52.62
2023-05-22T14:17:25.586Z,52.20
2023-05-22T14:19:53.315Z,53.04
2023-05-22T14:22:21.086Z,51.68
2023-05-22T14:24:48.844Z,52.85
2023-05-22T14:27:16.720Z,54.70
2023-05-22T14:29:45.907Z,54.64
2023-05-22T14:32:13.627Z,53.86
2023-05-22T14:34:41.343Z,54.27
2023-05-22T14:37:09.050Z,54.14
2023-05-22T14:39:36.765Z,54.76
2023-05-22T14:42:04.877Z,52.81
2023-05-22T14:44:32.721Z,54.09
2023-05-22T14:47:01.974Z,54.83
2023-05-22T14:49:29.704Z,53.33
2023-05-22T14:51:57.558Z,53.54
2023-05-22T14:54:25.283Z,52.80
2023-05-22T14:56:53.184Z,54.47
2023-05-22T14:59:21.461Z,54.64
2023-05-22T15:01:50.463Z,55.29
2023-05-22T15:04:19.950Z,54.81
2023-05-22T15:06:47.661Z,53.59
2023-05-22T15:09:15.419Z,54.92
2023-05-22T15:11:45.748Z,54.79
2023-05-22T15:14:13.568Z,53.98
2023-05-22T15:16:41.768Z,53.29
2023-05-22T15:19:10.143Z,53.73
2023-05-22T15:21:42.073Z,53.34
2023-05-22T15:24:09.925Z,52.95
2023-05-22T15:26:37.773Z,54.61
2023-05-22T15:29:05.942Z,53.02
2023-05-22T15:31:33.769Z,53.45
2023-05-22T15:34:01.565Z,54.21
2023-05-22T15:36:30.503Z,54.60
2023-05-22T15:38:59.606Z,55.40
2023-05-22T15:41:27.465Z,54.20
2023-05-22T15:43:55.254Z,54.58
2023-05-22T15:46:23.050Z,54.17
2023-05-22T15:48:50.888Z,54.04
2023-05-22T15:51:18.626Z,54.45
2023-05-22T15:53:46.348Z,55.10
2023-05-22T15:56:15.540Z,54.34
2023-05-22T15:58:43.287Z,52.35
2023-05-22T16:01:12.184Z,53.03
2023-05-22T16:03:40.105Z,52.76
2023-05-22T16:06:08.301Z,55.66
2023-05-22T16:08:36.051Z,56.55
2023-05-22T16:11:03.875Z,56.18
2023-05-22T16:13:33.287Z,54.96
2023-05-22T16:16:01.723Z,55.55
2023-05-22T16:18:29.579Z,55.34
2023-05-22T16:20:57.299Z,56.22
2023-05-22T16:23:25.079Z,57.01
2023-05-22T16:25:52.831Z,56.41
2023-05-22T16:28:20.587Z,54.85
2023-05-22T16:30:49.749Z,55.93
2023-05-22T16:33:17.468Z,56.37
2023-05-22T16:35:46.947Z,58.55
2023-05-22T16:38:14.849Z,58.62
2023-05-22T16:40:42.658Z,56.63
2023-05-22T16:43:10.589Z,59.06
2023-05-22T16:45:38.562Z,61.03
2023-05-22T16:48:08.269Z,60.05
2023-05-22T16:50:36.085Z,60.01
2023-05-22T16:53:06.702Z,60.57
2023-05-22T16:55:34.475Z,59.37
2023-05-22T16:58:02.265Z,59.95
2023-05-22T17:00:30.176Z,61.77
2023-05-22T17:02:58.435Z,59.72
2023-05-22T17:05:27.645Z,60.81
2023-05-22T17:07:55.476Z,59.68
2023-05-22T17:10:23.468Z,61.18
2023-05-22T17:12:51.948Z,61.62
2023-05-22T17:15:19.716Z,59.04
2023-05-22T17:17:47.489Z,60.18
2023-05-22T17:20:15.275Z,58.91
2023-05-22T17:22:45.106Z,58.41
2023-05-22T17:25:12.877Z,57.94
2023-05-22T17:27:40.662Z,61.16
2023-05-22T17:30:09.414Z,63.43
2023-05-22T17:32:37.182Z,60.50
2023-05-22T17:35:06.607Z,62.36
2023-05-22T17:37:34.764Z,60.99
2023-05-22T17:40:04.066Z,60.92
2023-05-22T17:42:31.813Z,63.18
2023-05-22T17:44:59.557Z,62.92
2023-05-22T17:47:27.338Z,60.93
2023-05-22T17:49:55.095Z,61.65
2023-05-22T17:52:22.963Z,63.11
2023-05-22T17:54:50.868Z,61.12
2023-05-22T17:57:20.035Z,62.28
2023-05-22T17:59:47.823Z,64.20
2023-05-22T18:02:15.738Z,63.29
2023-05-22T18:04:43.619Z,63.53
2023-05-22T18:07:11.397Z,62.23
2023-05-22T18:09:39.217Z,64.35
2023-05-22T18:12:10.906Z,64.66
2023-05-22T18:14:42.020Z,63.58
2023-05-22T18:17:09.770Z,64.61
2023-05-22T18:19:37.525Z,64.72
2023-05-22T18:22:05.596Z,62.94
2023-05-22T18:24:36.424Z,64.85
2023-05-22T18:27:04.588Z,66.78
2023-05-22T18:29:32.533Z,64.98
2023-05-22T18:32:01.721Z,62.82
2023-05-22T18:34:29.884Z,64.33
2023-05-22T18:36:59.621Z,64.63
2023-05-22T18:39:27.367Z,66.52
2023-05-22T18:41:55.107Z,66.45
2023-05-22T18:44:23.258Z,66.22
2023-05-22T18:46:51.062Z,65.80
2023-05-22T18:49:20.617Z,66.83
2023-05-22T18:51:48.423Z,68.45
2023-05-22T18:54:16.185Z,65.98
2023-05-22T18:56:43.928Z,68.38
2023-05-22T18:59:11.681Z,68.36
2023-05-22T19:01:39.431Z,70.50
2023-05-22T19:04:08.175Z,69.22
2023-05-22T19:06:37.767Z,68.17
2023-05-22T19:09:05.666Z,70.53
2023-05-22T19:11:33.512Z,70.02
2023-05-22T19:14:01.378Z,68.80
2023-05-22T19:16:29.210Z,69.73
2023-05-22T19:18:57.050Z,67.89
2023-05-22T19:21:26.340Z,71.96
2023-05-22T19:23:55.464Z,72.26
2023-05-22T19:26:23.346Z,71.56
2023-05-22T19:28:51.428Z,71.75
2023-05-22T19:31:19.288Z,74.85
2023-05-22T19:33:47.041Z,73.79
2023-05-22T19:36:14.803Z,73.35
2023-05-22T19:38:42.501Z,71.77
2023-05-22T19:41:11.640Z,73.93
2023-05-22T19:43:39.383Z,76.07
2023-05-22T19:46:08.877Z,74.98
2023-05-22T19:48:36.872Z,74.92
2023-05-22T19:51:05.311Z,73.94
2023-05-22T19:53:34.107Z,76.41
2023-05-22T19:56:02.911Z,74.37
2023-05-22T19:58:32.223Z,77.21
2023-05-22T20:00:59.968Z,76.42
2023-05-22T20:03:27.812Z,76.64
2023-05-22T20:05:55.669Z,78.94
2023-05-22T20:08:25.435Z,77.61
2023-05-22T20:10:53.487Z,76.83
2023-05-22T20:13:21.301Z,78.45
2023-05-22T20:15:51.316Z,78.79
2023-05-22T20:18:20.740Z,79.02
2023-05-22T20:20:48.494Z,78.70
2023-05-22T20:23:16.397Z,77.70
2023-05-22T20:25:44.149Z,78.11
2023-05-22T20:28:11.850Z,79.88
2023-05-22T20:30:39.589Z,79.71
2023-05-22T20:33:08.956Z,79.28
2023-05-22T20:35:37.174Z,80.83
2023-05-22T20:38:08.585Z,79.74
2023-05-22T20:40:37.722Z,79.11
2023-05-22T20:43:05.452Z,79.52
2023-05-22T20:45:34.328Z,79.45
2023-05-22T20:48:02.253Z,80.13
2023-05-22T20:50:32.736Z,82.28
2023-05-22T20:53:00.712Z,81.65
2023-05-22T20:55:28.439Z,81.09
2023-05-22T20:57:56.761Z,79.59
2023-05-22T21:00:24.507Z,80.38
2023-05-22T21:02:52.470Z,82.16
2023-05-22T21:05:20.295Z,82.03
2023-05-22T21:07:49.692Z,79.99
2023-05-22T21:10:17.597Z,82.39
2023-05-22T21:12:46.154Z,81.70
2023-05-22T21:15:13.963Z,82.41
2023-05-22T21:17:41.749Z,80.66
2023-05-22T21:20:10.404Z,83.02
2023-05-22T21:22:38.182Z,80.55
2023-05-22T21:25:08.711Z,80.21
2023-05-22T21:27:36.498Z,78.69
2023-05-22T21:30:04.616Z,78.87
2023-05-22T21:32:32.381Z,78.33
2023-05-22T21:35:00.136Z,79.98
2023-05-22T21:37:27.939Z,80.71
2023-05-22T21:39:55.688Z,80.80
2023-05-22T21:42:26.204Z,81.03
2023-05-22T21:44:54.118Z,81.54
2023-05-22T21:47:21.851Z,80.74
2023-05-22T21:49:49.627Z,78.98
2023-05-22T21:52:17.407Z,78.78
2023-05-22T21:54:45.208Z,81.87
2023-05-22T21:57:12.963Z,79.82
2023-05-22T21:59:42.180Z,80.49
2023-05-22T22:02:09.973Z,80.78
2023-05-22T22:04:37.727Z,80.25
2023-05-22T22:07:05.687Z,81.47
2023-05-22T22:09:33.513Z,80.51
2023-05-22T22:12:01.270Z,80.35
2023-05-22T22:14:29.215Z,81.15
2023-05-22T22:16:58.358Z,81.27
2023-05-22T22:19:26.238Z,81.71
2023-05-22T22:21:54.350Z,82.89
2023-05-22T22:24:22.188Z,81.43
2023-05-22T22:26:50.078Z,79.52
2023-05-22T22:29:17.803Z,78.88
2023-05-22T22:31:45.708Z,80.09
2023-05-22T22:34:14.821Z,79.42
2023-05-22T22:36:42.576Z,79.61
2023-05-22T22:39:10.572Z,78.38
2023-05-22T22:41:38.304Z,77.62
2023-05-22T22:44:06.091Z,77.68
2023-05-22T22:46:33.971Z,78.26
2023-05-22T22:49:02.279Z,77.04
2023-05-22T22:51:31.880Z,78.69
2023-05-22T22:53:59.734Z,77.45
2023-05-22T22:56:29.334Z,76.34
2023-05-22T22:58:57.546Z,77.91
2023-05-22T23:01:25.489Z,79.45
2023-05-22T23:03:53.312Z,77.41
2023-05-22T23:06:21.076Z,77.90
2023-05-22T23:08:50.280Z,79.78
2023-05-22T23:11:18.137Z,79.03
2023-05-22T23:13:45.913Z,76.48
2023-05-22T23:16:13.729Z,78.70
2023-05-22T23:18:41.632Z,77.90
2023-05-22T23:21:09.391Z,76.64
2023-05-22T23:23:37.088Z,78.59
2023-05-22T23:26:06.487Z,78.83
2023-05-22T23:28:34.232Z,79.17
2023-05-22T23:31:02.236Z,80.23
2023-05-22T23:33:29.950Z,80.15
2023-05-22T23:35:57.716Z,79.03
2023-05-22T23:38:25.752Z,78.73
2023-05-22T23:40:53.514Z,78.08
2023-05-22T23:43:22.677Z,79.62
2023-05-22T23:45:50.562Z,81.52
2023-05-22T23:48:18.353Z,81.12
2023-05-22T23:50:46.298Z,80.36
2023-05-22T23:53:14.060Z,81.11
2023-05-22T23:55:42.086Z,79.92
2023-05-22T23:58:10.100Z,79.48
